Time;durP1;ratioP1;P1;durP2;ratioP2;P2;SDS_P1;SDS_P2;PMS_P1;PMS_P2;Temp;Humidity;BMP_temperature;BMP_pressure;BME280_temperature;BME280_humidity;BME280_pressure;Samples;Min_cycle;Max_cycle;Signal;HPM_P1;HPM_P2
2021/11/12 00:13:06;;;;;;;13.83;11.80;;;;;;;6.79;100.00;101428.25;5072567;28;20260;-74
2021/11/12 00:15:35;;;;;;;15.83;12.30;;;;;;;6.88;100.00;101431.31;5073017;28;20170;-72
2021/11/12 00:18:01;;;;;;;13.33;11.93;;;;;;;7.06;100.00;101438.22;5073031;28;20198;-73
2021/11/12 00:20:27;;;;;;;14.07;12.57;;;;;;;7.14;100.00;101433.09;5073219;28;20626;-74
2021/11/12 00:22:53;;;;;;;16.43;11.30;;;;;;;7.24;100.00;101445.13;5071617;28;20738;-74
2021/11/12 00:25:19;;;;;;;17.07;11.47;;;;;;;7.47;100.00;101441.94;5072561;28;20206;-72
2021/11/12 00:27:45;;;;;;;16.10;11.97;;;;;;;7.63;100.00;101454.50;5072764;28;20178;-73
2021/11/12 00:40:27;;;;;;;12.00;10.73;;;;;;;8.12;100.00;101458.72;5072776;28;20265;-73
2021/11/12 00:45:29;;;;;;;13.73;11.37;;;;;;;8.24;100.00;101462.00;5072105;28;20615;-74
2021/11/12 00:48:09;;;;;;;15.73;10.93;;;;;;;8.33;100.00;101466.63;5072304;28;20171;-73
2021/11/12 00:50:55;;;;;;;12.40;10.73;;;;;;;8.42;100.00;101460.69;5072291;28;20174;-73
2021/11/12 00:55:46;;;;;;;12.80;11.37;;;;;;;7.88;100.00;101442.88;5072475;28;20174;-73
2021/11/12 00:58:14;;;;;;;12.87;11.50;;;;;;;7.84;100.00;101449.16;5072335;28;20170;-73
2021/11/12 01:00:40;;;;;;;12.13;10.93;;;;;;;7.94;100.00;101449.97;5072365;28;20178;-73
2021/11/12 01:03:06;;;;;;;14.30;11.53;;;;;;;8.02;100.00;101454.06;5072302;28;20202;-74
2021/11/12 01:05:31;;;;;;;13.30;10.80;;;;;;;8.24;100.00;101451.91;5070513;28;20693;-73
2021/11/12 01:08:02;;;;;;;13.80;11.63;;;;;;;8.39;100.00;101450.31;5069564;28;20182;-72
2021/11/12 01:10:29;;;;;;;17.10;11.47;;;;;;;8.46;100.00;101450.88;5071932;28;20171;-74
2021/11/12 01:12:56;;;;;;;17.93;11.97;;;;;;;8.59;100.00;101448.44;5071943;28;20516;-73
2021/11/12 01:15:22;;;;;;;12.77;11.43;;;;;;;8.63;100.00;101448.69;5071962;28;20579;-73
2021/11/12 01:17:48;;;;;;;19.13;12.17;;;;;;;8.57;100.00;101444.34;5072018;28;20237;-72
2021/11/12 01:20:15;;;;;;;18.60;11.27;;;;;;;8.62;100.00;101439.72;5071890;28;20652;-73
2021/11/12 01:22:41;;;;;;;13.33;11.20;;;;;;;8.63;100.00;101440.53;5072143;28;20293;-74
2021/11/12 01:25:10;;;;;;;15.63;12.53;;;;;;;8.62;100.00;101438.91;5071596;28;20266;-73
2021/11/12 01:27:37;;;;;;;16.20;12.97;;;;;;;8.60;100.00;101439.16;5071729;28;20687;-74
2021/11/12 01:30:03;;;;;;;14.37;12.57;;;;;;;8.58;100.00;101440.53;5071633;28;20181;-73
2021/11/12 01:32:30;;;;;;;20.30;12.80;;;;;;;8.51;100.00;101438.06;5071519;28;20680;-73
2021/11/12 01:34:58;;;;;;;20.33;13.87;;;;;;;8.37;100.00;101419.84;5071633;28;20670;-73
2021/11/12 01:37:25;;;;;;;14.70;11.67;;;;;;;7.87;100.00;101413.25;5071767;28;20174;-73
2021/11/12 01:39:55;;;;;;;16.93;13.47;;;;;;;7.97;100.00;101411.34;5071693;28;20686;-73
2021/11/12 01:42:22;;;;;;;17.13;11.97;;;;;;;8.10;100.00;101425.50;5071669;28;20203;-73
2021/11/12 01:45:08;;;;;;;18.07;11.83;;;;;;;7.84;100.00;101413.78;5069561;28;20542;-73
2021/11/12 01:50:16;;;;;;;18.20;12.17;;;;;;;7.32;100.00;101415.50;5071506;28;20162;-73
2021/11/12 01:52:45;;;;;;;19.63;11.97;;;;;;;7.53;100.00;101419.13;5071167;28;20174;-75
2021/11/12 01:55:15;;;;;;;15.03;11.17;;;;;;;7.78;100.00;101417.56;5071179;28;20253;-74
2021/11/12 01:57:56;;;;;;;18.13;11.93;;;;;;;7.75;100.00;101418.91;5071331;28;20640;-73
2021/11/12 02:00:25;;;;;;;16.53;12.00;;;;;;;7.87;100.00;101414.06;5071181;28;20249;-73
2021/11/12 02:02:51;;;;;;;16.43;13.03;;;;;;;7.56;100.00;101415.06;5071112;28;20262;-73
2021/11/12 02:05:17;;;;;;;16.50;12.13;;;;;;;7.40;100.00;101411.47;5071145;28;20181;-73
2021/11/12 02:07:44;;;;;;;18.03;13.10;;;;;;;7.28;100.00;101402.72;5071204;28;20182;-73
2021/11/12 02:10:14;;;;;;;18.70;12.47;;;;;;;7.30;100.00;101404.09;5070917;28;20185;-73
2021/11/12 02:13:00;;;;;;;14.30;12.00;;;;;;;7.31;100.00;101397.56;5071501;28;20259;-73
2021/11/12 02:15:27;;;;;;;17.90;12.47;;;;;;;7.63;100.00;101394.69;5071212;28;20170;-73
2021/11/12 02:18:04;;;;;;;17.13;11.20;;;;;;;7.77;100.00;101394.97;5070687;28;20528;-73
2021/11/12 02:23:03;;;;;;;13.57;12.03;;;;;;;7.95;100.00;101394.47;5070961;28;20209;-73
2021/11/12 02:25:39;;;;;;;21.63;11.20;;;;;;;8.05;100.00;101394.47;5070307;28;20243;-72
2021/11/12 02:28:10;;;;;;;15.07;11.27;;;;;;;8.04;100.00;101384.69;5070839;28;20162;-72
2021/11/12 02:30:36;;;;;;;11.77;10.03;;;;;;;8.02;100.00;101375.97;5070562;28;20169;-75
2021/11/12 02:33:06;;;;;;;12.67;11.47;;;;;;;7.92;100.00;101373.22;5070560;28;20178;-75
2021/11/12 02:35:34;;;;;;;13.13;11.37;;;;;;;7.85;100.00;101372.69;5068961;28;20265;-75
2021/11/12 02:38:03;;;;;;;13.40;10.50;;;;;;;7.75;100.00;101370.78;5070954;28;20570;-75
2021/11/12 02:40:29;;;;;;;12.77;11.20;;;;;;;7.59;100.00;101360.13;5070429;28;20221;-75
2021/11/12 02:42:54;;;;;;;13.27;11.17;;;;;;;7.49;100.00;101360.91;5070214;28;20237;-74
2021/11/12 02:45:20;;;;;;;12.57;11.23;;;;;;;7.35;100.00;101359.78;5069973;28;20181;-75
2021/11/12 02:47:46;;;;;;;13.00;10.53;;;;;;;7.25;100.00;101366.03;5070275;28;20170;-75
2021/11/12 02:50:12;;;;;;;13.00;11.60;;;;;;;7.02;100.00;101353.69;5070345;28;20215;-75
2021/11/12 02:52:39;;;;;;;20.00;13.83;;;;;;;6.81;100.00;101350.09;5068934;28;20191;-74
2021/11/12 02:55:04;;;;;;;15.10;11.97;;;;;;;6.82;100.00;101356.34;5069882;28;20253;-75
2021/11/12 02:57:34;;;;;;;21.40;13.33;;;;;;;6.95;100.00;101355.84;5069077;28;20341;-76
2021/11/12 02:59:59;;;;;;;15.73;11.73;;;;;;;7.15;100.00;101349.69;5070153;28;20177;-75
2021/11/12 03:02:25;;;;;;;16.30;11.60;;;;;;;7.36;100.00;101367.69;5069259;28;20202;-75
2021/11/12 03:04:51;;;;;;;15.37;11.40;;;;;;;7.46;100.00;101362.28;5067365;28;20205;-74
2021/11/12 03:07:16;;;;;;;16.27;11.90;;;;;;;7.51;100.00;101375.06;5070185;28;20192;-72
2021/11/12 03:09:41;;;;;;;13.40;9.83;;;;;;;7.45;100.00;101370.72;5070409;28;20542;-72
2021/11/12 03:12:08;;;;;;;14.47;10.57;;;;;;;7.25;100.00;101371.47;5070465;28;20167;-75
2021/11/12 03:14:34;;;;;;;12.70;10.80;;;;;;;7.11;100.00;101371.13;5070315;28;20527;-75
2021/11/12 03:17:00;;;;;;;17.53;10.23;;;;;;;7.08;100.00;101359.97;5070914;28;20197;-75
2021/11/12 03:19:27;;;;;;;16.90;11.97;;;;;;;7.00;100.00;101355.06;5069076;28;20689;-75
2021/11/12 03:21:59;;;;;;;12.93;10.57;;;;;;;6.89;100.00;101351.47;5070531;28;20293;-76
2021/11/12 03:24:28;;;;;;;16.33;11.17;;;;;;;6.91;100.00;101352.00;5070332;28;20163;-75
2021/11/12 04:17:13;;;;;;;16.13;10.40;;;;;;;7.28;100.00;101335.59;5073756;28;20175;-72
2021/11/12 04:39:48;;;;;;;13.87;9.30;;;;;;;7.24;100.00;101325.53;5073158;28;20182;-72
2021/11/12 05:10:00;;;;;;;9.47;7.07;;;;;;;5.81;100.00;101296.72;5072144;28;20681;-76
2021/11/12 05:50:13;;;;;;;13.67;9.13;;;;;;;5.29;100.00;101259.38;5071122;28;20673;-77
2021/11/12 05:55:22;;;;;;;11.03;9.50;;;;;;;5.34;100.00;101254.81;5070986;28;20189;-77
2021/11/12 05:57:48;;;;;;;13.63;8.13;;;;;;;5.28;100.00;101247.72;5071082;28;20409;-76
2021/11/12 06:00:16;;;;;;;14.57;9.73;;;;;;;5.26;100.00;101249.06;5071241;28;20175;-76
2021/11/12 06:02:42;;;;;;;8.83;7.70;;;;;;;5.17;100.00;101240.56;5070824;28;20226;-77
2021/11/12 06:05:09;;;;;;;10.23;7.17;;;;;;;5.23;100.00;101236.03;5070646;28;20670;-75
2021/11/12 06:07:34;;;;;;;11.03;8.50;;;;;;;5.25;100.00;101232.00;5070907;28;20240;-76
2021/11/12 06:10:00;;;;;;;15.97;11.00;;;;;;;5.42;100.00;101237.28;5070847;28;20634;-76
2021/11/12 06:12:26;;;;;;;21.73;14.33;;;;;;;5.65;100.00;101234.25;5070850;28;20342;-76
2021/11/12 06:14:52;;;;;;;14.23;11.93;;;;;;;5.70;100.00;101241.59;5070480;28;20174;-77
2021/11/12 06:17:17;;;;;;;13.80;9.70;;;;;;;5.80;100.00;101244.41;5070767;28;20682;-76
2021/11/12 06:19:43;;;;;;;14.80;11.07;;;;;;;5.81;100.00;101253.34;5070788;28;20185;-76
2021/11/12 06:22:08;;;;;;;14.97;12.43;;;;;;;6.03;100.00;101254.06;5070611;28;20298;-76
2021/11/12 06:24:34;;;;;;;13.00;10.50;;;;;;;6.22;100.00;101247.16;5070426;28;20537;-76
2021/11/12 06:26:59;;;;;;;15.70;11.07;;;;;;;6.19;100.00;101244.13;5071012;28;20173;-77
2021/11/12 06:29:24;;;;;;;17.07;10.53;;;;;;;6.07;100.00;101230.75;5070446;28;20193;-76
2021/11/12 06:31:51;;;;;;;21.83;11.83;;;;;;;6.10;100.00;101227.53;5070545;28;20182;-74
2021/11/12 06:34:16;;;;;;;12.43;10.63;;;;;;;6.28;100.00;101234.41;5069999;28;20619;-73
2021/11/12 06:36:42;;;;;;;15.87;11.10;;;;;;;6.10;100.00;101226.72;5070864;28;20527;-76
2021/11/12 06:39:09;;;;;;;16.17;10.00;;;;;;;6.19;100.00;101230.56;5070346;28;20536;-76
2021/11/12 06:44:25;;;;;;;12.60;10.73;;;;;;;6.49;100.00;101222.56;5069945;28;20185;-76
2021/11/12 06:52:45;;;;;;;11.90;9.30;;;;;;;6.47;100.00;101230.16;5047580;28;20183;-77
2021/11/12 06:55:12;;;;;;;13.33;9.87;;;;;;;6.55;100.00;101224.22;5065716;28;20186;-76
2021/11/12 06:57:39;;;;;;;10.57;9.23;;;;;;;6.24;100.00;101219.75;5070232;28;20626;-76
2021/11/12 07:00:13;;;;;;;10.73;9.27;;;;;;;6.03;100.00;101212.56;5070169;28;20166;-78
2021/11/12 07:02:40;;;;;;;10.63;8.57;;;;;;;6.28;100.00;101201.03;5068721;28;20213;-77
2021/11/12 07:05:06;;;;;;;12.00;8.50;;;;;;;6.39;100.00;101217.13;5071082;28;20167;-76
2021/11/12 07:07:31;;;;;;;9.60;7.73;;;;;;;6.38;100.00;101212.75;5073896;28;20209;-75
2021/11/12 07:09:57;;;;;;;9.10;7.03;;;;;;;6.37;100.00;101221.19;5074226;28;20634;-75
2021/11/12 07:12:22;;;;;;;8.57;7.67;;;;;;;6.27;100.00;101208.38;5074146;28;20269;-75
2021/11/12 07:14:48;;;;;;;12.73;7.40;;;;;;;6.18;100.00;101204.50;5073777;28;20171;-76
2021/11/12 07:17:15;;;;;;;8.43;7.53;;;;;;;6.17;100.00;101190.13;5074081;28;20171;-77
2021/11/12 07:19:41;;;;;;;8.23;7.43;;;;;;;6.22;100.00;101189.31;5073791;28;20692;-74
2021/11/12 07:22:06;;;;;;;8.53;7.07;;;;;;;6.29;100.00;101189.09;5074144;28;20562;-73
2021/11/12 07:24:32;;;;;;;7.43;6.00;;;;;;;6.34;100.00;101200.78;5073744;28;20170;-76
2021/11/12 07:26:59;;;;;;;8.67;6.57;;;;;;;6.18;100.00;101185.50;5074005;28;20170;-76
2021/11/12 07:29:26;;;;;;;5.83;5.27;;;;;;;6.28;100.00;101187.47;5073767;28;20173;-74
2021/11/12 07:31:52;;;;;;;4.67;4.23;;;;;;;6.29;100.00;101181.78;5073776;28;20357;-76
2021/11/12 07:34:18;;;;;;;4.60;3.97;;;;;;;6.38;100.00;101185.63;5073326;28;20249;-76
2021/11/12 07:36:50;;;;;;;4.63;3.57;;;;;;;6.42;100.00;101194.03;5073780;28;20181;-76
2021/11/12 07:40:23;;;;;;;5.03;3.43;;;;;;;6.49;100.00;101172.88;5073791;28;20277;-75
2021/11/12 07:47:34;;;;;;;3.40;2.70;;;;;;;6.56;100.00;101171.56;5066172;28;20315;-76
2021/11/12 07:50:03;;;;;;;4.53;3.50;;;;;;;6.51;100.00;101163.41;5074287;28;20265;-76
2021/11/12 07:52:31;;;;;;;4.03;3.63;;;;;;;6.65;100.00;101169.13;5073867;28;20537;-74
2021/11/12 07:54:58;;;;;;;4.27;3.83;;;;;;;6.66;100.00;101167.25;5073655;28;20179;-74
2021/11/12 07:57:23;;;;;;;4.20;3.70;;;;;;;6.66;100.00;101162.66;5073880;28;20324;-74
2021/11/12 07:59:49;;;;;;;5.50;3.43;;;;;;;6.72;100.00;101177.03;5073734;28;20692;-75
2021/11/12 08:02:15;;;;;;;6.03;4.73;;;;;;;6.67;100.00;101168.91;5072189;28;20217;-76
2021/11/12 08:04:45;;;;;;;4.83;4.33;;;;;;;6.72;100.00;101155.31;5072906;28;20301;-73
2021/11/12 08:07:11;;;;;;;4.33;3.93;;;;;;;6.74;100.00;101158.59;5073517;28;20673;-72
2021/11/12 08:09:46;;;;;;;4.40;4.00;;;;;;;6.83;100.00;101156.97;5073630;28;20170;-72
2021/11/12 08:12:16;;;;;;;4.73;3.77;;;;;;;6.84;100.00;101148.56;5073364;28;20169;-72
2021/11/12 08:17:37;;;;;;;5.87;4.60;;;;;;;6.95;100.00;101143.97;5073103;28;20162;-72
2021/11/12 08:20:19;;;;;;;4.93;3.80;;;;;;;7.05;100.00;101137.72;5055755;28;20224;-73
2021/11/12 08:22:52;;;;;;;12.07;5.17;;;;;;;7.08;100.00;101135.25;5068549;28;20203;-72
2021/11/12 08:25:26;;;;;;;3.20;2.27;;;;;;;7.14;100.00;101130.66;5052999;28;20210;-72
2021/11/12 08:33:33;;;;;;;2.50;2.30;;;;;;;7.30;100.00;101115.97;5064754;28;20202;-72
2021/11/12 08:38:51;;;;;;;1.83;1.63;;;;;;;7.40;100.00;101117.88;5072960;28;20208;-72
2021/11/12 08:41:20;;;;;;;2.10;1.70;;;;;;;7.42;100.00;101107.53;5072824;28;20189;-72
2021/11/12 08:44:34;;;;;;;2.50;2.30;;;;;;;7.38;100.00;101110.00;5072385;28;20255;-72
2021/11/12 08:46:48;;;;;;;1.70;1.60;;;;;;;7.37;100.00;101112.97;5066921;28;20194;-71
2021/11/12 08:49:17;;;;;;;4.43;2.47;;;;;;;7.37;100.00;101097.47;5072782;28;20243;-72
2021/11/12 08:51:43;;;;;;;2.70;2.17;;;;;;;7.45;100.00;101071.66;5072660;28;20233;-72
2021/11/12 08:54:09;;;;;;;2.43;1.90;;;;;;;7.54;100.00;101096.38;5072515;28;20634;-72
2021/11/12 08:56:36;;;;;;;2.40;1.70;;;;;;;7.58;100.00;101092.84;5072595;28;20175;-72
2021/11/12 08:59:02;;;;;;;1.30;1.20;;;;;;;7.58;100.00;101084.69;5072411;28;20228;-72
2021/11/12 09:01:27;;;;;;;1.37;1.03;;;;;;;7.61;100.00;101091.47;5072371;28;20626;-72
2021/11/12 09:03:54;;;;;;;0.80;0.80;;;;;;;7.56;100.00;101089.59;5072445;28;20258;-72
2021/11/12 09:06:20;;;;;;;0.93;0.83;;;;;;;7.47;100.00;101091.22;5072560;28;20174;-73
2021/11/12 09:08:45;;;;;;;0.83;0.73;;;;;;;7.35;100.00;101085.25;5072442;28;20176;-74
2021/11/12 09:11:12;;;;;;;1.03;1.00;;;;;;;7.20;100.00;101074.41;5071092;28;20187;-73
2021/11/12 09:13:51;;;;;;;1.40;1.30;;;;;;;7.11;100.00;101072.25;5065362;28;20183;-74
2021/11/12 09:16:17;;;;;;;0.30;0.30;;;;;;;7.10;100.00;101070.63;5067794;28;20182;-73
2021/11/12 09:18:48;;;;;;;1.20;1.07;;;;;;;6.96;100.00;101074.97;5067449;28;20206;-73
2021/11/12 09:21:15;;;;;;;1.60;1.37;;;;;;;7.02;100.00;101078.50;5072343;28;20163;-73
2021/11/12 09:23:47;;;;;;;0.87;0.83;;;;;;;7.04;100.00;101074.41;5070948;28;20198;-73
2021/11/12 09:26:13;;;;;;;1.03;0.93;;;;;;;7.08;100.00;101066.53;5072728;28;20210;-73
2021/11/12 09:28:38;;;;;;;1.93;1.73;;;;;;;7.11;100.00;101045.06;5071625;28;20198;-73
2021/11/12 09:31:05;;;;;;;1.47;1.33;;;;;;;7.12;100.00;101046.72;5071702;28;20265;-73
2021/11/12 09:33:31;;;;;;;1.77;1.67;;;;;;;7.12;100.00;101040.47;5072405;28;20179;-73
2021/11/12 09:35:57;;;;;;;2.03;1.83;;;;;;;7.05;100.00;101040.72;5072308;28;20232;-73
2021/11/12 09:38:23;;;;;;;2.20;1.90;;;;;;;7.05;100.00;101048.88;5072245;28;20185;-73
2021/11/12 09:40:48;;;;;;;2.50;2.13;;;;;;;7.05;100.00;101050.78;5072326;28;20183;-73
2021/11/12 09:43:14;;;;;;;3.20;2.90;;;;;;;7.03;100.00;101056.47;5072146;28;20563;-73
2021/11/12 09:45:39;;;;;;;2.90;2.40;;;;;;;7.09;100.00;101051.88;5070715;28;20258;-73
2021/11/12 09:48:07;;;;;;;2.77;2.53;;;;;;;7.11;100.00;101047.78;5070752;28;20179;-74
2021/11/12 09:50:32;;;;;;;2.70;2.50;;;;;;;7.13;100.00;101044.81;5071313;28;20638;-73
2021/11/12 09:52:59;;;;;;;2.83;2.63;;;;;;;7.22;100.00;101034.16;5070201;28;20264;-73
2021/11/12 09:55:28;;;;;;;2.90;2.47;;;;;;;7.16;100.00;101019.78;5071414;28;20174;-73
2021/11/12 09:57:54;;;;;;;2.37;2.07;;;;;;;7.09;100.00;101022.81;5071511;28;20253;-73
2021/11/12 10:00:23;;;;;;;2.43;2.23;;;;;;;7.04;100.00;101024.69;5071304;28;20312;-73
2021/11/12 10:02:50;;;;;;;3.33;3.03;;;;;;;7.02;100.00;101032.31;5071106;28;20202;-74
2021/11/12 10:05:30;;;;;;;2.50;2.23;;;;;;;7.05;100.00;101027.13;5071710;28;20227;-74
2021/11/12 10:07:57;;;;;;;2.87;2.63;;;;;;;7.23;100.00;101035.81;5071327;28;20194;-75
2021/11/12 10:10:23;;;;;;;2.33;2.10;;;;;;;7.33;100.00;101033.06;5071275;28;20166;-75
2021/11/12 10:12:49;;;;;;;3.03;2.37;;;;;;;7.31;100.00;101027.09;5070951;28;20174;-75
2021/11/12 10:15:22;;;;;;;2.80;2.50;;;;;;;7.27;100.00;101021.41;5070491;28;20174;-75
2021/11/12 10:17:49;;;;;;;2.47;1.87;;;;;;;7.32;100.00;101031.44;5070711;28;20179;-75
2021/11/12 10:20:18;;;;;;;2.00;1.87;;;;;;;7.35;100.00;101028.97;5070779;28;20182;-74
2021/11/12 10:22:45;;;;;;;2.67;2.47;;;;;;;7.43;100.00;101022.19;5070779;28;20229;-75
2021/11/12 10:25:12;;;;;;;3.40;2.40;;;;;;;7.50;100.00;101030.84;5070514;28;20197;-74
2021/11/12 10:27:45;;;;;;;2.70;2.50;;;;;;;7.49;100.00;101028.41;5070715;28;20171;-75
2021/11/12 10:30:14;;;;;;;2.73;2.53;;;;;;;7.58;100.00;101041.16;5070749;28;20654;-74
2021/11/12 10:32:42;;;;;;;2.30;2.10;;;;;;;7.75;100.00;101035.41;5070572;28;20618;-75
2021/11/12 10:35:29;;;;;;;3.00;2.50;;;;;;;7.97;100.00;101038.59;5070456;28;20224;-75
2021/11/12 10:38:10;;;;;;;3.00;2.70;;;;;;;8.05;100.00;101037.16;5070436;28;20170;-74
2021/11/12 10:40:35;;;;;;;2.70;2.43;;;;;;;7.96;100.00;101027.97;5070430;28;20257;-74
2021/11/12 10:43:00;;;;;;;3.70;3.13;;;;;;;8.07;99.38;101018.66;5070314;28;20771;-75
2021/11/12 10:45:29;;;;;;;3.70;2.70;;;;;;;8.15;98.13;101018.06;5070413;28;20749;-74
2021/11/12 10:48:04;;;;;;;5.37;4.67;;;;;;;8.01;96.88;101011.63;5070575;28;20167;-74
2021/11/12 10:50:33;;;;;;;2.87;2.10;;;;;;;8.09;95.93;101002.03;5069931;28;20204;-74
2021/11/12 10:53:08;;;;;;;3.07;2.33;;;;;;;8.03;95.60;100995.81;5064729;28;20206;-73
2021/11/12 10:55:35;;;;;;;7.93;6.00;;;;;;;7.78;96.42;100987.78;5069972;28;20178;-81
2021/11/12 10:58:20;;;;;;;5.30;4.53;;;;;;;7.78;97.01;100993.22;5070135;28;20170;-73
2021/11/12 11:00:50;;;;;;;3.53;3.00;;;;;;;7.90;97.25;101001.88;5062681;28;20179;-73
2021/11/12 11:03:20;;;;;;;4.93;4.50;;;;;;;7.73;96.57;101000.31;5070598;28;20614;-73
2021/11/12 11:05:58;;;;;;;4.87;4.37;;;;;;;7.95;97.70;101007.28;5069700;28;20538;-73
2021/11/12 11:08:29;;;;;;;4.67;4.27;;;;;;;8.01;96.63;101003.47;5068288;28;20182;-74
2021/11/12 11:11:02;;;;;;;7.77;4.10;;;;;;;7.86;96.93;101006.25;5070300;28;20539;-74
2021/11/12 11:13:33;;;;;;;5.93;5.23;;;;;;;7.86;97.07;101006.25;5070380;28;20170;-73
2021/11/12 11:16:05;;;;;;;6.03;5.43;;;;;;;7.89;97.64;100994.81;5070397;28;20243;-73
2021/11/12 11:18:32;;;;;;;5.50;5.00;;;;;;;7.92;98.08;100981.44;5070434;28;20175;-73
2021/11/12 11:21:05;;;;;;;6.60;6.00;;;;;;;7.81;98.55;100977.19;5070421;28;20175;-74
2021/11/12 11:23:41;;;;;;;5.77;5.17;;;;;;;7.74;98.73;100972.03;5070293;28;20407;-73
2021/11/12 11:26:06;;;;;;;7.80;5.83;;;;;;;7.95;98.38;100977.34;5067923;28;20560;-73
2021/11/12 11:28:34;;;;;;;9.50;7.83;;;;;;;8.11;97.18;100962.59;5070162;28;20181;-74
2021/11/12 11:31:02;;;;;;;6.20;5.60;;;;;;;8.13;96.80;100956.84;5063884;28;20194;-73
2021/11/12 11:33:28;;;;;;;6.37;5.77;;;;;;;8.39;96.20;100966.50;5050267;28;20191;-74
2021/11/12 11:35:55;;;;;;;6.50;6.00;;;;;;;8.23;95.21;100940.44;5051032;28;20190;-74
2021/11/12 11:38:25;;;;;;;6.67;6.07;;;;;;;8.21;95.67;100924.41;5050244;28;20647;-74
2021/11/12 11:40:50;;;;;;;7.37;6.67;;;;;;;8.24;96.46;100929.25;5050269;28;20175;-73
2021/11/12 11:43:16;;;;;;;7.13;6.50;;;;;;;8.04;95.56;100913.09;5049823;28;20581;-74
2021/11/12 11:45:48;;;;;;;7.23;6.53;;;;;;;8.03;95.96;100912.28;5049942;28;20253;-74
2021/11/12 11:48:15;;;;;;;7.50;6.80;;;;;;;8.21;96.18;100918.94;5050120;28;20171;-74
2021/11/12 11:50:50;;;;;;;8.73;6.87;;;;;;;8.30;95.13;100919.16;5050214;28;20511;-73
2021/11/12 11:53:38;;;;;;;9.07;8.27;;;;;;;8.11;95.25;100918.22;5054092;28;20539;-74
2021/11/12 11:56:26;;;;;;;7.27;6.57;;;;;;;8.14;95.83;100926.63;5053945;28;20167;-73
2021/11/12 11:59:10;;;;;;;9.60;8.60;;;;;;;8.30;95.59;100927.34;5053759;28;20187;-74
2021/11/12 12:02:05;;;;;;;8.33;7.53;;;;;;;8.50;93.53;100929.91;5053762;28;20163;-74
2021/11/12 12:04:51;;;;;;;8.47;7.53;;;;;;;8.50;93.25;100927.19;5044530;28;20193;-73
2021/11/12 12:07:27;;;;;;;10.97;8.40;;;;;;;8.16;94.52;100910.84;5053507;28;20266;-73
2021/11/12 12:10:03;;;;;;;8.63;7.77;;;;;;;8.49;93.02;100920.13;5065612;28;20205;-74
2021/11/12 12:12:33;;;;;;;10.27;9.17;;;;;;;8.48;92.56;100915.78;5073365;28;20232;-73
2021/11/12 12:15:05;;;;;;;9.77;8.37;;;;;;;8.55;92.99;100916.28;5073317;28;20175;-73
2021/11/12 12:17:38;;;;;;;10.13;8.97;;;;;;;8.76;93.14;100918.78;5073445;28;20523;-82
2021/11/12 12:20:13;;;;;;;14.60;9.97;;;;;;;8.75;91.63;100904.34;5073261;28;20186;-73
2021/11/12 13:24:36;;;;;;;12.83;10.13;;;;;;;8.64;88.98;100808.31;5069378;28;20594;-73
2021/11/12 13:27:07;;;;;;;10.47;9.37;;;;;;;8.60;89.58;100809.19;5068420;28;20721;-72
2021/11/12 13:29:40;;;;;;;9.93;8.90;;;;;;;8.42;89.75;100801.75;5072239;28;20232;-73
2021/11/12 13:32:07;;;;;;;10.13;9.13;;;;;;;8.41;90.69;100800.16;5071914;28;20753;-73
2021/11/12 13:34:46;;;;;;;10.43;9.30;;;;;;;8.11;91.10;100793.88;5072093;28;20163;-74
2021/11/12 13:37:20;;;;;;;9.30;8.33;;;;;;;8.30;90.95;100797.47;5070878;28;20216;-72
2021/11/12 13:40:03;;;;;;;10.27;7.70;;;;;;;8.44;90.31;100807.72;5071893;28;20167;-73
2021/11/12 13:42:29;;;;;;;14.63;9.13;;;;;;;8.40;89.95;100798.53;5071680;28;20600;-73
2021/11/12 13:44:54;;;;;;;10.03;8.97;;;;;;;8.44;89.61;100799.56;5071211;28;20175;-73
2021/11/12 13:47:21;;;;;;;11.80;8.17;;;;;;;8.52;89.03;100801.63;5070268;28;20186;-72
2021/11/12 13:49:53;;;;;;;9.47;8.57;;;;;;;8.53;89.06;100793.16;5067157;28;20189;-72
2021/11/12 13:52:28;;;;;;;9.80;8.80;;;;;;;8.37;89.50;100783.56;5070033;28;20183;-73
2021/11/12 13:55:02;;;;;;;9.90;8.90;;;;;;;8.38;89.18;100779.72;5071234;28;20387;-72
2021/11/12 13:57:28;;;;;;;12.73;9.17;;;;;;;8.39;88.87;100766.91;5071574;28;20574;-73
2021/11/12 14:00:07;;;;;;;9.80;8.80;;;;;;;8.40;89.21;100766.66;5071296;28;20178;-72
2021/11/12 14:02:55;;;;;;;9.47;8.47;;;;;;;8.29;89.97;100765.09;5071157;28;20536;-73
2021/11/12 14:05:22;;;;;;;10.43;9.00;;;;;;;8.19;89.88;100760.56;5071018;28;20257;-72
2021/11/12 14:08:01;;;;;;;12.67;9.30;;;;;;;8.12;90.33;100754.66;5071065;28;20194;-72
2021/11/12 14:10:48;;;;;;;9.40;8.50;;;;;;;8.31;90.04;100765.63;5071032;28;20228;-72
2021/11/12 14:13:16;;;;;;;20.13;12.70;;;;;;;8.36;89.76;100760.16;5071034;28;20174;-73
2021/11/12 14:15:56;;;;;;;11.83;8.10;;;;;;;8.46;88.82;100762.78;5068440;28;20245;-73
2021/11/12 14:26:46;;;;;;;10.47;7.33;;;;;;;8.16;89.59;100727.69;5070832;28;20315;-73
2021/11/12 14:29:50;;;;;;;12.17;8.33;;;;;;;8.01;90.36;100725.94;5070813;28;20212;-73
2021/11/12 14:40:36;;;;;;;12.00;8.90;;;;;;;7.72;92.21;100691.38;5070631;28;20204;-72
2021/11/12 14:45:31;;;;;;;7.13;6.47;;;;;;;7.50;93.10;100692.94;5070019;28;20563;-72
2021/11/12 14:51:06;;;;;;;10.03;7.10;;;;;;;7.26;94.80;100695.56;5027615;28;20271;-72
2021/11/12 14:53:42;;;;;;;11.53;8.73;;;;;;;7.23;95.02;100696.13;5062958;28;20189;-72
2021/11/12 14:56:20;;;;;;;8.17;7.37;;;;;;;7.10;95.35;100690.25;5070243;28;20257;-72
2021/11/12 14:58:56;;;;;;;10.43;7.23;;;;;;;7.02;96.46;100673.72;5070174;28;20170;-72
2021/11/12 15:01:29;;;;;;;6.50;5.87;;;;;;;6.92;96.60;100677.31;5070063;28;20193;-72
2021/11/12 15:03:54;;;;;;;6.10;5.50;;;;;;;6.85;97.46;100671.38;5069870;28;20206;-72
2021/11/12 15:06:23;;;;;;;10.67;8.63;;;;;;;6.81;97.62;100683.91;5069804;28;20718;-72
2021/11/12 15:08:52;;;;;;;7.53;6.03;;;;;;;6.80;97.95;100695.88;5067655;28;20545;-72
2021/11/12 15:11:21;;;;;;;9.87;8.33;;;;;;;6.80;98.58;100687.72;5068530;28;20183;-76
2021/11/12 15:13:48;;;;;;;12.57;8.90;;;;;;;6.76;98.08;100678.50;5067938;28;20175;-72
2021/11/12 15:16:24;;;;;;;10.37;9.33;;;;;;;6.65;98.79;100669.59;5068749;28;20231;-73
2021/11/12 15:18:54;;;;;;;9.77;8.77;;;;;;;6.72;99.21;100672.00;5070209;28;20400;-72
2021/11/12 15:21:33;;;;;;;7.93;5.83;;;;;;;6.78;98.34;100673.59;5070429;28;20181;-72
2021/11/12 15:32:02;;;;;;;10.30;9.27;;;;;;;6.49;99.65;100655.28;5074284;28;20183;-73
2021/11/12 15:34:29;;;;;;;8.93;8.13;;;;;;;6.46;100.00;100655.84;5074080;28;20699;-72
2021/11/12 15:37:01;;;;;;;10.67;8.00;;;;;;;6.42;100.00;100654.78;5073836;28;20183;-72
2021/11/12 15:39:40;;;;;;;10.93;9.70;;;;;;;6.37;100.00;100649.38;5072518;28;20179;-73
2021/11/12 15:42:25;;;;;;;8.70;7.80;;;;;;;6.38;100.00;100647.50;5073526;28;20244;-73
2021/11/12 15:44:53;;;;;;;10.13;9.10;;;;;;;6.29;100.00;100643.72;5073473;28;20185;-73
2021/11/12 15:47:32;;;;;;;11.37;10.00;;;;;;;6.25;100.00;100644.28;5073539;28;20642;-74
2021/11/12 15:50:07;;;;;;;16.80;11.67;;;;;;;6.12;100.00;100641.34;5073439;28;20171;-72
2021/11/12 15:52:44;;;;;;;19.43;11.83;;;;;;;6.17;100.00;100646.75;5073201;28;20174;-72
2021/11/12 16:03:42;;;;;;;10.53;9.40;;;;;;;6.17;100.00;100623.13;5056772;28;20242;-73
2021/11/12 16:14:22;;;;;;;10.70;9.60;;;;;;;5.81;100.00;100667.72;5072464;28;20681;-74
2021/11/12 16:17:10;;;;;;;13.50;10.47;;;;;;;5.82;100.00;100664.72;5073129;28;20166;-73
2021/11/12 16:19:42;;;;;;;11.27;10.07;;;;;;;6.02;100.00;100671.19;5072907;28;20231;-74
2021/11/12 16:27:23;;;;;;;10.20;9.10;;;;;;;5.77;100.00;100645.72;5072555;28;20187;-73
2021/11/12 16:29:50;;;;;;;13.30;9.57;;;;;;;5.61;100.00;100639.53;5072971;28;20178;-73
2021/11/12 16:34:49;;;;;;;11.80;9.17;;;;;;;5.83;100.00;100649.25;5072901;28;20185;-73
2021/11/12 16:37:18;;;;;;;8.80;7.93;;;;;;;5.85;100.00;100647.09;5072611;28;20665;-73
2021/11/12 16:39:52;;;;;;;10.67;8.97;;;;;;;5.81;100.00;100643.31;5072747;28;20174;-73
2021/11/12 16:47:51;;;;;;;10.40;9.30;;;;;;;5.70;100.00;100639.78;5072893;28;20171;-73
2021/11/12 17:11:39;;;;;;;13.00;10.70;;;;;;;5.31;100.00;100610.56;5072323;28;20540;-74
2021/11/12 17:21:23;;;;;;;11.07;9.97;;;;;;;5.46;100.00;100608.94;5072148;28;20186;-73